Аэропорт: Бесовец. Петрозаводск

ICAO: ULPB

METAR:
2019/03/26 13:00
ULPB 261300Z 02005MPS 9999 -SN OVC020 00/M04 Q1002 R19/290052 NOSIG RMK QFE748/0997
METAR:
Информация по данной станции не доступна